createdAt,value
2019-02-21T00:01:21.390Z,18.23
2019-02-21T00:03:50.653Z,17.73
2019-02-21T00:06:19.933Z,17.87
2019-02-21T00:08:49.267Z,18.77
2019-02-21T00:11:18.635Z,19.43
2019-02-21T00:13:47.939Z,18.00
2019-02-21T00:16:17.267Z,18.13
2019-02-21T00:18:46.552Z,17.80
2019-02-21T00:21:15.795Z,18.77
2019-02-21T00:23:45.100Z,17.87
2019-02-21T00:26:14.458Z,16.57
2019-02-21T00:28:43.781Z,17.27
2019-02-21T00:31:13.171Z,18.73
2019-02-21T00:33:42.550Z,17.97
2019-02-21T00:36:11.880Z,17.23
2019-02-21T00:38:41.129Z,17.00
2019-02-21T00:41:10.420Z,18.10
2019-02-21T00:43:39.686Z,16.83
2019-02-21T00:46:08.968Z,17.10
2019-02-21T00:48:38.332Z,16.67
2019-02-21T00:51:07.735Z,16.67
2019-02-21T00:53:37.152Z,16.57
2019-02-21T00:56:06.395Z,16.00
2019-02-21T00:58:35.695Z,16.93
2019-02-21T01:01:05.029Z,16.83
2019-02-21T01:03:34.359Z,17.77
2019-02-21T01:06:03.697Z,17.73
2019-02-21T01:08:32.941Z,17.77
2019-02-21T01:11:02.256Z,18.00
2019-02-21T01:13:31.496Z,18.63
2019-02-21T01:16:00.819Z,17.90
2019-02-21T01:18:30.193Z,18.33
2019-02-21T01:20:59.496Z,17.90
2019-02-21T01:23:28.871Z,17.83
2019-02-21T01:25:58.250Z,16.97
2019-02-21T01:28:27.542Z,17.37
2019-02-21T01:30:57.356Z,19.07
2019-02-21T01:33:26.849Z,18.37
2019-02-21T01:35:56.219Z,18.13
2019-02-21T01:38:25.534Z,18.17
2019-02-21T01:40:54.914Z,17.77
2019-02-21T01:43:24.244Z,17.23
2019-02-21T01:45:53.523Z,17.70
2019-02-21T01:48:22.846Z,17.70
2019-02-21T01:50:52.178Z,17.47
2019-02-21T01:53:21.536Z,17.27
2019-02-21T01:55:50.957Z,16.47
2019-02-21T01:58:20.336Z,16.10
2019-02-21T02:00:49.676Z,17.23
2019-02-21T02:03:19.095Z,16.27
2019-02-21T02:05:48.396Z,17.10
2019-02-21T02:08:17.657Z,16.37
2019-02-21T02:10:47.170Z,17.20
2019-02-21T02:13:24.005Z,15.70
2019-02-21T02:15:47.526Z,15.23
2019-02-21T02:18:16.840Z,16.07
2019-02-21T02:20:46.153Z,15.20
2019-02-21T02:23:15.453Z,16.23
2019-02-21T02:25:44.808Z,15.87
2019-02-21T02:28:14.138Z,16.37
2019-02-21T02:30:43.431Z,16.03
2019-02-21T02:33:12.784Z,16.17
2019-02-21T02:35:42.132Z,17.23
2019-02-21T02:38:11.379Z,17.70
2019-02-21T02:40:40.676Z,17.40
2019-02-21T02:43:09.911Z,17.87
2019-02-21T02:45:39.182Z,17.90
2019-02-21T02:48:08.533Z,17.10
2019-02-21T02:50:37.917Z,17.03
2019-02-21T02:53:07.237Z,16.97
2019-02-21T02:55:36.501Z,17.30
2019-02-21T02:58:06.669Z,17.40
2019-02-21T03:00:36.033Z,17.53
2019-02-21T03:03:05.353Z,18.70
2019-02-21T03:05:34.709Z,17.37
2019-02-21T03:08:04.052Z,17.97
2019-02-21T03:10:33.443Z,16.27
2019-02-21T03:13:02.784Z,16.53
2019-02-21T03:17:54.958Z,17.30
2019-02-21T03:20:24.256Z,16.77
2019-02-21T03:22:53.558Z,17.37
2019-02-21T03:25:22.866Z,16.80
2019-02-21T03:27:52.189Z,16.40
2019-02-21T03:30:21.555Z,18.33
2019-02-21T03:32:50.807Z,17.10
2019-02-21T03:35:20.163Z,17.67
2019-02-21T03:37:49.511Z,17.07
2019-02-21T03:40:18.781Z,17.67
2019-02-21T03:42:48.077Z,17.30
2019-02-21T03:45:17.397Z,16.23
2019-02-21T03:47:46.681Z,17.50
2019-02-21T03:50:15.970Z,17.27
2019-02-21T03:52:45.325Z,17.67
2019-02-21T03:55:14.663Z,16.87
2019-02-21T03:57:44.036Z,16.80
2019-02-21T04:00:13.570Z,17.13
2019-02-21T04:02:42.987Z,17.40
2019-02-21T04:05:12.267Z,16.53
2019-02-21T04:07:41.563Z,17.17
2019-02-21T04:10:10.933Z,16.70
2019-02-21T04:12:40.298Z,16.67
2019-02-21T04:15:10.997Z,16.47
2019-02-21T04:17:40.367Z,17.13
2019-02-21T04:20:09.645Z,15.93
2019-02-21T04:22:38.934Z,16.73
2019-02-21T04:25:08.271Z,17.00
2019-02-21T04:27:37.544Z,17.83
2019-02-21T04:30:06.938Z,16.43
2019-02-21T04:32:36.246Z,16.67
2019-02-21T04:35:05.676Z,17.57
2019-02-21T04:37:35.005Z,15.73
2019-02-21T04:40:04.603Z,16.73
2019-02-21T04:42:33.897Z,17.27
2019-02-21T04:45:03.222Z,16.50
2019-02-21T04:47:32.537Z,16.97
2019-02-21T04:50:01.853Z,16.33
2019-02-21T04:52:31.171Z,16.67
2019-02-21T04:55:00.533Z,16.67
2019-02-21T04:57:29.803Z,18.27
2019-02-21T04:59:59.160Z,17.27
2019-02-21T05:02:29.733Z,16.73
2019-02-21T05:04:59.107Z,17.67
2019-02-21T05:07:28.486Z,18.33
2019-02-21T05:09:58.532Z,18.83
2019-02-21T05:12:27.964Z,18.97
2019-02-21T05:14:57.368Z,17.43
2019-02-21T05:17:26.662Z,18.17
2019-02-21T05:19:55.946Z,17.37
2019-02-21T05:22:25.237Z,17.63
2019-02-21T05:24:54.545Z,18.20
2019-02-21T05:27:27.957Z,17.53
2019-02-21T05:29:57.211Z,16.40
2019-02-21T05:32:42.680Z,17.60
2019-02-21T05:35:31.469Z,17.63
2019-02-21T05:38:19.715Z,17.40
2019-02-21T05:41:06.262Z,18.33
2019-02-21T05:44:00.698Z,17.93
2019-02-21T05:46:47.387Z,17.33
2019-02-21T05:49:47.580Z,17.20
2019-02-21T05:52:30.386Z,16.53
2019-02-21T05:55:04.524Z,17.03
2019-02-21T05:57:42.658Z,16.17
2019-02-21T06:00:46.210Z,17.47
2019-02-21T06:03:43.269Z,16.10
2019-02-21T06:06:31.529Z,18.00
2019-02-21T06:09:24.279Z,16.50
2019-02-21T06:12:06.102Z,15.67
2019-02-21T06:14:42.958Z,17.20
2019-02-21T06:17:34.192Z,16.37
2019-02-21T06:20:25.658Z,17.37
2019-02-21T06:23:06.480Z,16.60
2019-02-21T06:25:50.858Z,17.63
2019-02-21T06:28:25.884Z,18.83
2019-02-21T06:31:07.933Z,17.20
2019-02-21T06:33:37.268Z,16.73
2019-02-21T06:36:06.560Z,18.77
2019-02-21T06:38:35.854Z,17.37
2019-02-21T06:41:05.213Z,16.87
2019-02-21T06:43:34.748Z,16.63
2019-02-21T06:46:04.052Z,16.10
2019-02-21T06:48:34.933Z,15.33
2019-02-21T06:51:04.291Z,15.47
2019-02-21T06:53:33.593Z,18.30
2019-02-21T06:56:02.898Z,15.43
2019-02-21T06:58:32.258Z,15.07
2019-02-21T07:01:01.948Z,14.87
2019-02-21T07:03:31.248Z,15.07
2019-02-21T07:06:00.572Z,15.20
2019-02-21T07:08:29.853Z,14.00
2019-02-21T07:11:06.268Z,14.33
2019-02-21T07:13:30.276Z,14.03
2019-02-21T07:15:59.639Z,13.93
2019-02-21T07:18:29.122Z,12.83
2019-02-21T07:20:58.429Z,13.47
2019-02-21T07:23:28.207Z,13.67
2019-02-21T07:26:00.960Z,13.07
2019-02-21T07:28:30.277Z,14.20
2019-02-21T07:30:59.593Z,12.10
2019-02-21T07:33:29.139Z,12.87
2019-02-21T07:35:58.405Z,12.30
2019-02-21T07:38:27.694Z,12.13
2019-02-21T07:40:57.032Z,12.33
2019-02-21T07:43:26.340Z,13.80
2019-02-21T07:45:55.931Z,12.73
2019-02-21T07:48:25.342Z,13.00
2019-02-21T07:50:54.610Z,12.10
2019-02-21T07:53:23.917Z,12.37
2019-02-21T07:55:55.746Z,12.17
2019-02-21T07:58:24.296Z,12.97
2019-02-21T08:00:54.171Z,11.03
2019-02-21T08:03:30.320Z,12.53
2019-02-21T08:05:54.486Z,11.33
2019-02-21T08:08:23.822Z,11.80
2019-02-21T08:10:53.144Z,11.90
2019-02-21T08:13:22.478Z,11.90
2019-02-21T08:15:51.746Z,12.23
2019-02-21T08:18:21.040Z,11.93
2019-02-21T08:20:50.391Z,12.13
2019-02-21T08:23:19.717Z,11.57
2019-02-21T08:25:49.002Z,12.27
2019-02-21T08:28:18.306Z,11.67
2019-02-21T08:30:47.599Z,11.90
2019-02-21T08:33:27.990Z,11.03
2019-02-21T08:35:57.996Z,11.30
2019-02-21T08:38:27.405Z,11.57
2019-02-21T08:40:57.255Z,11.63
2019-02-21T08:43:26.625Z,11.00
2019-02-21T08:45:57.555Z,12.10
2019-02-21T08:48:27.229Z,10.97
2019-02-21T08:50:56.541Z,11.47
2019-02-21T08:53:28.018Z,11.07
2019-02-21T08:55:56.886Z,11.60
2019-02-21T08:58:26.171Z,11.33
2019-02-21T09:00:55.475Z,11.87
2019-02-21T09:03:24.853Z,12.03
2019-02-21T09:05:54.171Z,11.77
2019-02-21T09:08:33.035Z,12.37
2019-02-21T09:10:54.453Z,11.63
2019-02-21T09:13:24.037Z,12.87
2019-02-21T09:15:55.836Z,11.20
2019-02-21T09:18:24.405Z,11.23
2019-02-21T09:20:53.745Z,10.80
2019-02-21T09:23:23.061Z,10.47
2019-02-21T09:25:52.396Z,9.77
2019-02-21T09:28:21.715Z,9.40
2019-02-21T09:30:51.028Z,8.17
2019-02-21T09:33:21.337Z,8.50
2019-02-21T09:35:51.010Z,8.37
2019-02-21T09:38:20.324Z,7.23
2019-02-21T09:40:49.645Z,6.20
2019-02-21T09:43:18.928Z,6.33
2019-02-21T09:45:48.262Z,6.23
2019-02-21T09:48:17.652Z,6.23
2019-02-21T09:50:47.568Z,5.40
2019-02-21T09:53:16.850Z,5.30
2019-02-21T09:55:46.195Z,4.43
2019-02-21T09:58:15.555Z,5.00
2019-02-21T10:00:44.806Z,4.40
2019-02-21T10:03:14.146Z,4.67
2019-02-21T10:05:43.519Z,4.00
2019-02-21T10:08:12.858Z,4.23
2019-02-21T10:10:42.116Z,3.87
2019-02-21T10:13:13.265Z,3.63
2019-02-21T10:15:42.989Z,3.80
2019-02-21T10:18:12.334Z,3.93
2019-02-21T10:20:41.595Z,3.73
2019-02-21T10:23:10.971Z,4.00
2019-02-21T10:25:40.304Z,3.20
2019-02-21T10:28:09.592Z,3.57
2019-02-21T10:30:38.928Z,3.63
2019-02-21T10:33:08.199Z,3.40
2019-02-21T10:35:37.458Z,3.37
2019-02-21T10:38:06.774Z,3.80
2019-02-21T10:40:36.042Z,3.97
2019-02-21T10:43:05.405Z,3.67
2019-02-21T10:45:34.780Z,3.90
2019-02-21T10:48:04.275Z,3.20
2019-02-21T10:50:33.628Z,3.43
2019-02-21T10:53:03.103Z,4.33
2019-02-21T10:55:32.416Z,3.77
2019-02-21T10:58:01.807Z,3.90
2019-02-21T11:00:31.204Z,3.13
2019-02-21T11:03:00.449Z,3.40
2019-02-21T11:05:29.757Z,3.33
2019-02-21T11:07:59.103Z,3.03
2019-02-21T11:10:28.743Z,4.00
2019-02-21T11:12:58.066Z,3.10
2019-02-21T11:15:27.500Z,3.30
2019-02-21T11:17:56.897Z,3.27
2019-02-21T11:20:26.154Z,2.97
2019-02-21T11:22:55.416Z,3.63
2019-02-21T11:25:24.703Z,3.60
2019-02-21T11:27:54.071Z,3.50
2019-02-21T11:30:23.407Z,3.63
2019-02-21T11:32:52.666Z,3.67
2019-02-21T11:35:21.962Z,4.10
2019-02-21T11:37:51.291Z,3.90
2019-02-21T11:40:20.584Z,3.73
2019-02-21T11:42:49.869Z,3.50
2019-02-21T11:45:19.718Z,4.03
2019-02-21T11:47:49.024Z,3.70
2019-02-21T11:50:18.309Z,4.20
2019-02-21T11:52:47.638Z,4.20
2019-02-21T11:55:21.612Z,3.43
2019-02-21T11:57:50.927Z,4.50
2019-02-21T12:00:24.684Z,3.97
2019-02-21T12:02:54.061Z,4.60
2019-02-21T12:05:30.530Z,3.77
2019-02-21T12:07:54.626Z,3.57
2019-02-21T12:10:23.995Z,3.47
2019-02-21T12:12:53.548Z,4.37
2019-02-21T12:15:22.875Z,3.77
2019-02-21T12:17:52.193Z,3.90
2019-02-21T12:20:21.470Z,3.60
2019-02-21T12:22:50.756Z,3.37
2019-02-21T12:25:20.180Z,3.20
2019-02-21T12:27:49.515Z,3.20
2019-02-21T12:30:19.182Z,2.90
2019-02-21T12:32:48.471Z,3.00
2019-02-21T12:35:28.826Z,2.90
2019-02-21T12:37:48.957Z,2.67
2019-02-21T12:40:18.974Z,2.67
2019-02-21T12:42:48.232Z,2.27
2019-02-21T12:45:18.942Z,2.23
2019-02-21T12:47:52.852Z,2.13
2019-02-21T12:50:19.258Z,1.97
2019-02-21T12:52:48.583Z,2.00
2019-02-21T12:55:27.251Z,1.90
2019-02-21T12:57:49.034Z,2.17
2019-02-21T13:00:18.984Z,2.30
2019-02-21T13:02:48.306Z,1.80
2019-02-21T13:05:17.781Z,1.80
2019-02-21T13:07:47.145Z,1.60
2019-02-21T13:10:17.639Z,1.40
2019-02-21T13:12:46.935Z,1.20
2019-02-21T13:15:16.223Z,1.33
2019-02-21T13:17:45.672Z,1.30
2019-02-21T13:20:15.261Z,1.20
2019-02-21T13:22:44.679Z,1.10
2019-02-21T13:25:14.212Z,0.90
2019-02-21T13:27:43.479Z,1.40
2019-02-21T13:30:14.581Z,1.37
2019-02-21T13:32:43.891Z,1.00
2019-02-21T13:35:13.242Z,0.93
2019-02-21T13:37:42.626Z,1.27
2019-02-21T13:40:13.158Z,1.00
2019-02-21T13:42:42.487Z,1.00
2019-02-21T13:45:12.864Z,1.23
2019-02-21T13:47:42.151Z,1.07
2019-02-21T13:50:13.551Z,1.03
2019-02-21T13:52:42.833Z,1.50
2019-02-21T13:55:12.247Z,1.70
2019-02-21T13:57:41.560Z,1.23
2019-02-21T14:00:13.836Z,1.53
2019-02-21T14:02:43.224Z,1.43
2019-02-21T14:05:12.589Z,1.10
2019-02-21T14:07:41.873Z,1.27
2019-02-21T14:10:11.704Z,1.23
2019-02-21T14:12:41.050Z,1.17
2019-02-21T14:15:12.874Z,1.20
2019-02-21T14:17:42.232Z,1.30
2019-02-21T14:20:11.643Z,1.43
2019-02-21T14:22:40.927Z,1.03
2019-02-21T14:25:10.242Z,1.10
2019-02-21T14:27:39.538Z,1.10
2019-02-21T14:30:11.246Z,1.40
2019-02-21T14:32:40.543Z,1.30
2019-02-21T14:35:10.867Z,1.43
2019-02-21T14:37:40.180Z,1.50
2019-02-21T14:40:10.486Z,1.13
2019-02-21T14:42:39.974Z,1.10
2019-02-21T14:45:12.606Z,1.20
2019-02-21T14:47:41.989Z,1.60
2019-02-21T14:50:11.545Z,1.37
2019-02-21T14:52:40.839Z,1.37
2019-02-21T14:55:10.966Z,1.50
2019-02-21T14:57:41.322Z,1.50
2019-02-21T15:00:16.838Z,1.30
2019-02-21T15:02:46.164Z,2.23
2019-02-21T15:05:15.446Z,1.30
2019-02-21T15:07:44.763Z,1.13
2019-02-21T15:10:14.697Z,1.73
2019-02-21T15:12:44.072Z,1.50
2019-02-21T15:15:14.626Z,1.30
2019-02-21T15:17:43.978Z,1.63
2019-02-21T15:20:14.147Z,1.50
2019-02-21T15:22:43.436Z,1.63
2019-02-21T15:25:12.714Z,1.20
2019-02-21T15:27:41.993Z,1.47
2019-02-21T15:30:13.619Z,1.77
2019-02-21T15:32:44.744Z,1.40
2019-02-21T15:35:14.103Z,1.60
2019-02-21T15:37:45.077Z,1.73
2019-02-21T15:40:14.589Z,1.73
2019-02-21T15:42:43.924Z,0.97
2019-02-21T15:45:22.988Z,1.30
2019-02-21T15:47:46.230Z,1.10
2019-02-21T15:50:15.498Z,1.13
2019-02-21T15:52:44.989Z,0.90
2019-02-21T15:55:14.994Z,0.93
2019-02-21T15:57:44.303Z,0.97
2019-02-21T16:00:15.457Z,1.57
2019-02-21T16:02:44.880Z,1.80
2019-02-21T16:05:14.312Z,1.30
2019-02-21T16:07:43.648Z,1.80
2019-02-21T16:10:15.054Z,1.27
2019-02-21T16:12:45.053Z,0.80
2019-02-21T16:15:16.377Z,0.93
2019-02-21T16:17:45.778Z,1.50
2019-02-21T16:20:15.335Z,1.00
2019-02-21T16:22:44.770Z,1.30
2019-02-21T16:25:19.322Z,1.20
2019-02-21T16:27:48.611Z,0.97
2019-02-21T16:30:17.876Z,1.00
2019-02-21T16:32:47.182Z,1.00
2019-02-21T16:35:16.508Z,1.10
2019-02-21T16:37:45.807Z,0.97
2019-02-21T16:40:15.312Z,0.93
2019-02-21T16:42:44.695Z,1.00
2019-02-21T16:45:14.662Z,1.03
2019-02-21T16:47:43.985Z,0.80
2019-02-21T16:50:13.809Z,1.00
2019-02-21T16:52:43.098Z,1.20
2019-02-21T16:55:14.700Z,0.90
2019-02-21T16:57:43.988Z,1.33
2019-02-21T17:00:14.334Z,1.10
2019-02-21T17:02:43.648Z,1.13
2019-02-21T17:05:13.963Z,1.07
2019-02-21T17:07:43.345Z,1.00
2019-02-21T17:10:14.472Z,0.87
2019-02-21T17:12:43.721Z,1.20
2019-02-21T17:15:13.353Z,1.17
2019-02-21T17:17:42.743Z,1.20
2019-02-21T17:20:13.554Z,1.00
2019-02-21T17:22:42.805Z,1.40
2019-02-21T17:25:12.951Z,1.40
2019-02-21T17:27:42.423Z,1.23
2019-02-21T17:30:14.672Z,1.40
2019-02-21T17:32:43.961Z,1.13
2019-02-21T17:35:13.533Z,1.70
2019-02-21T17:37:42.881Z,1.53
2019-02-21T17:40:14.684Z,1.10
2019-02-21T17:42:43.961Z,1.43
2019-02-21T17:45:13.580Z,1.40
2019-02-21T17:47:42.896Z,1.10
2019-02-21T17:50:12.678Z,1.30
2019-02-21T17:52:41.975Z,0.90
2019-02-21T17:55:11.491Z,0.93
2019-02-21T17:57:40.793Z,0.90
2019-02-21T18:00:13.430Z,0.80
2019-02-21T18:02:42.764Z,0.80
2019-02-21T18:05:12.055Z,1.20
2019-02-21T18:07:41.363Z,0.90
2019-02-21T18:10:12.476Z,1.10
2019-02-21T18:12:41.760Z,2.00
2019-02-21T18:15:11.324Z,1.50
2019-02-21T18:17:40.588Z,1.10
2019-02-21T18:20:10.896Z,1.10
2019-02-21T18:22:40.269Z,1.23
2019-02-21T18:25:12.758Z,1.00
2019-02-21T18:27:42.071Z,0.97
2019-02-21T18:30:12.966Z,0.90
2019-02-21T18:32:42.253Z,0.93
2019-02-21T18:35:11.984Z,1.00
2019-02-21T18:37:47.386Z,0.73
2019-02-21T18:40:17.361Z,0.60
2019-02-21T18:42:45.034Z,0.93
2019-02-21T18:45:14.452Z,1.00
2019-02-21T18:47:43.798Z,0.50
2019-02-21T18:50:13.151Z,0.90
2019-02-21T18:52:42.451Z,0.80
2019-02-21T18:55:11.840Z,0.93
2019-02-21T18:57:41.185Z,0.80
2019-02-21T19:00:12.224Z,0.90
2019-02-21T19:02:41.536Z,1.03
2019-02-21T19:05:10.863Z,0.90
2019-02-21T19:07:40.163Z,0.83
2019-02-21T19:10:11.258Z,0.53
2019-02-21T19:12:40.538Z,0.63
2019-02-21T19:15:09.975Z,0.90
2019-02-21T19:17:39.266Z,1.10
2019-02-21T19:20:09.923Z,1.10
2019-02-21T19:22:39.271Z,0.97
2019-02-21T19:25:09.408Z,1.03
2019-02-21T19:27:38.773Z,1.20
2019-02-21T19:30:11.748Z,1.43
2019-02-21T19:32:41.065Z,1.20
2019-02-21T19:35:10.447Z,1.33
2019-02-21T19:37:39.870Z,1.10
2019-02-21T19:40:09.487Z,1.13
2019-02-21T19:42:38.838Z,1.00
2019-02-21T19:45:08.502Z,1.00
2019-02-21T19:47:37.773Z,1.23
2019-02-21T19:50:07.395Z,0.80
2019-02-21T19:52:36.833Z,0.60
2019-02-21T19:55:06.282Z,0.70
2019-02-21T19:57:35.561Z,0.60
2019-02-21T20:00:05.012Z,0.87
2019-02-21T20:02:34.395Z,0.77
2019-02-21T20:05:03.675Z,0.63
2019-02-21T20:07:33.046Z,0.70
2019-02-21T20:10:02.458Z,0.77
2019-02-21T20:12:31.773Z,0.90
2019-02-21T20:15:01.015Z,0.70
2019-02-21T20:17:30.339Z,0.80
2019-02-21T20:19:59.615Z,0.50
2019-02-21T20:22:28.991Z,1.07
2019-02-21T20:24:58.376Z,0.80
2019-02-21T20:27:27.659Z,0.80
2019-02-21T20:29:56.905Z,1.03
2019-02-21T20:32:26.278Z,0.90
2019-02-21T20:34:55.729Z,1.10
2019-02-21T20:37:25.050Z,0.93
2019-02-21T20:39:55.161Z,1.00
2019-02-21T20:42:24.655Z,0.93
2019-02-21T20:44:54.086Z,0.90
2019-02-21T20:47:23.503Z,1.20
2019-02-21T20:49:52.795Z,1.27
2019-02-21T20:52:22.273Z,1.23
2019-02-21T20:54:51.593Z,1.00
2019-02-21T20:57:20.971Z,1.50
2019-02-21T20:59:50.408Z,1.23
2019-02-21T21:02:19.740Z,1.10
2019-02-21T21:04:49.001Z,1.30
2019-02-21T21:07:25.016Z,1.30
2019-02-21T21:09:49.380Z,1.30
2019-02-21T21:12:18.705Z,1.80
2019-02-21T21:14:47.991Z,1.13
2019-02-21T21:17:17.303Z,1.60
2019-02-21T21:19:46.574Z,1.20
2019-02-21T21:22:16.016Z,1.37
2019-02-21T21:24:45.364Z,1.33
2019-02-21T21:27:14.661Z,1.17
2019-02-21T21:29:44.007Z,1.57
2019-02-21T21:32:13.365Z,1.50
2019-02-21T21:34:42.857Z,1.60
2019-02-21T21:37:12.228Z,1.67
2019-02-21T21:39:41.527Z,1.37
2019-02-21T21:42:10.826Z,1.10
2019-02-21T21:44:40.323Z,0.97
2019-02-21T21:47:09.626Z,1.30
2019-02-21T21:49:38.975Z,1.30
2019-02-21T21:52:08.282Z,1.20
2019-02-21T21:54:38.074Z,1.57
2019-02-21T21:57:07.367Z,1.30
2019-02-21T21:59:36.713Z,1.63
2019-02-21T22:02:06.152Z,1.13
2019-02-21T22:04:35.457Z,1.03
2019-02-21T22:07:04.894Z,1.30
2019-02-21T22:09:34.243Z,1.53
2019-02-21T22:12:03.638Z,1.57
2019-02-21T22:14:32.936Z,1.10
2019-02-21T22:17:02.319Z,0.77
2019-02-21T22:19:31.644Z,1.07
2019-02-21T22:22:00.946Z,0.80
2019-02-21T22:24:30.350Z,1.27
2019-02-21T22:26:59.671Z,1.40
2019-02-21T22:29:28.948Z,1.07
2019-02-21T22:31:58.396Z,1.27
2019-02-21T22:34:27.774Z,1.23
2019-02-21T22:36:57.089Z,1.10
2019-02-21T22:39:26.427Z,1.30
2019-02-21T22:41:55.740Z,1.27
2019-02-21T22:44:25.043Z,1.00
2019-02-21T22:46:54.393Z,1.20
2019-02-21T22:49:23.683Z,1.97
2019-02-21T22:51:53.170Z,1.30
2019-02-21T22:54:22.450Z,0.80
2019-02-21T22:56:51.852Z,1.33
2019-02-21T22:59:21.123Z,1.30
2019-02-21T23:01:50.630Z,1.10
2019-02-21T23:04:26.069Z,1.30
2019-02-21T23:07:17.517Z,1.30
2019-02-21T23:09:46.917Z,0.90
2019-02-21T23:12:16.188Z,0.73
2019-02-21T23:14:45.513Z,1.13
2019-02-21T23:17:14.908Z,1.13
2019-02-21T23:19:44.239Z,1.00
2019-02-21T23:22:13.545Z,0.67
2019-02-21T23:24:42.853Z,1.10
2019-02-21T23:27:12.164Z,0.90
2019-02-21T23:29:41.458Z,1.10
2019-02-21T23:32:10.843Z,1.43
2019-02-21T23:34:42.884Z,1.10
2019-02-21T23:37:12.237Z,0.93
2019-02-21T23:39:41.528Z,1.10
2019-02-21T23:42:10.830Z,0.70
2019-02-21T23:44:40.095Z,0.90
2019-02-21T23:47:09.397Z,1.20
2019-02-21T23:49:38.755Z,1.33
2019-02-21T23:52:08.058Z,0.80
2019-02-21T23:54:37.333Z,1.40
2019-02-21T23:57:06.675Z,1.07
2019-02-21T23:59:36.031Z,0.87
